sensor_id;sensor_type;location;lat;lon;timestamp;P1;durP1;ratioP1;P2;durP2;ratioP2
9489;SDS011;4783;42.734;23.288;2022-10-16T07:57:14;20.92;;;14.48;;
9489;SDS011;4783;42.734;23.288;2022-10-16T07:59:44;22.33;;;14.30;;
9489;SDS011;4783;42.734;23.288;2022-10-16T08:02:09;17.52;;;12.45;;
9489;SDS011;4783;42.734;23.288;2022-10-16T08:04:35;19.42;;;14.38;;
9489;SDS011;4783;42.734;23.288;2022-10-16T08:07:00;18.40;;;12.60;;
9489;SDS011;4783;42.734;23.288;2022-10-16T08:24:35;12.55;;;9.80;;
9489;SDS011;4783;42.734;23.288;2022-10-16T08:27:02;13.55;;;9.43;;
9489;SDS011;4783;42.734;23.288;2022-10-16T08:29:27;16.02;;;10.65;;
9489;SDS011;4783;42.734;23.288;2022-10-16T08:31:52;13.68;;;8.93;;
9489;SDS011;4783;42.734;23.288;2022-10-16T08:34:18;12.80;;;8.65;;
9489;SDS011;4783;42.734;23.288;2022-10-16T08:36:43;11.80;;;7.53;;
9489;SDS011;4783;42.734;23.288;2022-10-16T08:39:08;11.93;;;8.82;;
9489;SDS011;4783;42.734;23.288;2022-10-16T08:41:51;16.33;;;8.85;;
9489;SDS011;4783;42.734;23.288;2022-10-16T08:44:42;10.95;;;7.88;;
9489;SDS011;4783;42.734;23.288;2022-10-16T08:49:33;9.85;;;7.03;;
9489;SDS011;4783;42.734;23.288;2022-10-16T08:51:58;8.73;;;7.15;;
9489;SDS011;4783;42.734;23.288;2022-10-16T08:54:32;10.77;;;7.93;;
9489;SDS011;4783;42.734;23.288;2022-10-16T08:57:09;11.07;;;7.15;;
9489;SDS011;4783;42.734;23.288;2022-10-16T08:59:34;10.45;;;6.70;;
9489;SDS011;4783;42.734;23.288;2022-10-16T09:02:00;12.73;;;6.32;;
9489;SDS011;4783;42.734;23.288;2022-10-16T09:07:01;8.80;;;5.88;;
9489;SDS011;4783;42.734;23.288;2022-10-16T09:09:38;6.10;;;4.75;;
9489;SDS011;4783;42.734;23.288;2022-10-16T09:12:14;9.50;;;5.75;;
9489;SDS011;4783;42.734;23.288;2022-10-16T09:19:50;10.32;;;5.10;;
9489;SDS011;4783;42.734;23.288;2022-10-16T09:22:16;7.97;;;5.85;;
9489;SDS011;4783;42.734;23.288;2022-10-16T09:24:42;7.32;;;5.47;;
9489;SDS011;4783;42.734;23.288;2022-10-16T09:27:10;7.38;;;5.13;;
9489;SDS011;4783;42.734;23.288;2022-10-16T09:29:36;7.13;;;5.57;;
9489;SDS011;4783;42.734;23.288;2022-10-16T09:32:07;7.82;;;4.72;;
9489;SDS011;4783;42.734;23.288;2022-10-16T09:34:35;8.52;;;4.72;;
9489;SDS011;4783;42.734;23.288;2022-10-16T09:37:05;9.25;;;5.00;;
9489;SDS011;4783;42.734;23.288;2022-10-16T09:39:44;7.88;;;5.45;;
9489;SDS011;4783;42.734;23.288;2022-10-16T09:42:10;8.75;;;4.57;;
9489;SDS011;4783;42.734;23.288;2022-10-16T09:44:35;6.50;;;5.00;;
9489;SDS011;4783;42.734;23.288;2022-10-16T09:47:05;7.95;;;4.90;;
9489;SDS011;4783;42.734;23.288;2022-10-16T09:49:30;7.07;;;5.13;;
9489;SDS011;4783;42.734;23.288;2022-10-16T09:52:05;6.57;;;5.18;;
9489;SDS011;4783;42.734;23.288;2022-10-16T09:54:31;10.20;;;5.50;;
9489;SDS011;4783;42.734;23.288;2022-10-16T09:57:06;8.23;;;4.80;;
9489;SDS011;4783;42.734;23.288;2022-10-16T09:59:32;10.15;;;5.13;;
9489;SDS011;4783;42.734;23.288;2022-10-16T10:02:00;7.25;;;4.70;;
9489;SDS011;4783;42.734;23.288;2022-10-16T10:04:36;7.53;;;4.93;;
9489;SDS011;4783;42.734;23.288;2022-10-16T10:07:02;10.88;;;7.57;;
9489;SDS011;4783;42.734;23.288;2022-10-16T10:09:28;6.63;;;5.95;;
9489;SDS011;4783;42.734;23.288;2022-10-16T10:11:55;6.68;;;4.80;;
9489;SDS011;4783;42.734;23.288;2022-10-16T10:14:25;5.28;;;4.38;;
9489;SDS011;4783;42.734;23.288;2022-10-16T10:16:52;8.13;;;3.80;;
9489;SDS011;4783;42.734;23.288;2022-10-16T10:19:21;8.20;;;5.45;;
9489;SDS011;4783;42.734;23.288;2022-10-16T10:21:47;7.93;;;5.20;;
9489;SDS011;4783;42.734;23.288;2022-10-16T10:24:13;7.50;;;4.63;;
9489;SDS011;4783;42.734;23.288;2022-10-16T10:31:38;11.73;;;5.88;;
9489;SDS011;4783;42.734;23.288;2022-10-16T10:36:43;5.60;;;3.83;;
9489;SDS011;4783;42.734;23.288;2022-10-16T10:39:50;11.45;;;4.70;;
9489;SDS011;4783;42.734;23.288;2022-10-16T10:47:40;8.70;;;4.50;;
9489;SDS011;4783;42.734;23.288;2022-10-16T10:50:26;13.27;;;5.47;;
9489;SDS011;4783;42.734;23.288;2022-10-16T10:53:10;7.68;;;3.80;;
9489;SDS011;4783;42.734;23.288;2022-10-16T10:58:07;8.13;;;3.75;;
9489;SDS011;4783;42.734;23.288;2022-10-16T11:05:51;4.00;;;3.60;;
9489;SDS011;4783;42.734;23.288;2022-10-16T11:11:25;9.10;;;5.43;;
9489;SDS011;4783;42.734;23.288;2022-10-16T11:18:59;5.80;;;3.80;;
9489;SDS011;4783;42.734;23.288;2022-10-16T11:21:26;4.35;;;3.72;;
9489;SDS011;4783;42.734;23.288;2022-10-16T11:23:54;5.97;;;4.15;;
9489;SDS011;4783;42.734;23.288;2022-10-16T11:26:28;5.70;;;3.83;;
9489;SDS011;4783;42.734;23.288;2022-10-16T11:28:54;5.82;;;4.15;;
9489;SDS011;4783;42.734;23.288;2022-10-16T11:31:32;4.35;;;3.90;;
9489;SDS011;4783;42.734;23.288;2022-10-16T11:36:31;5.33;;;3.10;;
9489;SDS011;4783;42.734;23.288;2022-10-16T11:41:34;8.20;;;3.90;;
9489;SDS011;4783;42.734;23.288;2022-10-16T11:46:46;6.68;;;3.65;;
9489;SDS011;4783;42.734;23.288;2022-10-16T11:49:14;7.72;;;3.60;;
9489;SDS011;4783;42.734;23.288;2022-10-16T11:51:41;4.30;;;3.35;;
9489;SDS011;4783;42.734;23.288;2022-10-16T11:54:18;8.52;;;3.10;;
9489;SDS011;4783;42.734;23.288;2022-10-16T11:56:46;6.70;;;3.58;;
9489;SDS011;4783;42.734;23.288;2022-10-16T11:59:20;5.95;;;3.55;;
9489;SDS011;4783;42.734;23.288;2022-10-16T12:06:59;5.05;;;3.33;;
9489;SDS011;4783;42.734;23.288;2022-10-16T12:09:29;6.78;;;3.85;;
9489;SDS011;4783;42.734;23.288;2022-10-16T12:11:54;5.40;;;3.60;;
9489;SDS011;4783;42.734;23.288;2022-10-16T12:14:21;5.93;;;3.28;;
9489;SDS011;4783;42.734;23.288;2022-10-16T12:19:19;3.42;;;2.38;;
9489;SDS011;4783;42.734;23.288;2022-10-16T12:21:44;3.53;;;2.70;;
9489;SDS011;4783;42.734;23.288;2022-10-16T12:26:54;3.78;;;3.10;;
9489;SDS011;4783;42.734;23.288;2022-10-16T12:29:28;3.78;;;2.90;;
9489;SDS011;4783;42.734;23.288;2022-10-16T12:31:54;4.43;;;2.58;;
9489;SDS011;4783;42.734;23.288;2022-10-16T12:34:22;7.90;;;2.45;;
9489;SDS011;4783;42.734;23.288;2022-10-16T12:36:48;3.00;;;2.70;;
9489;SDS011;4783;42.734;23.288;2022-10-16T12:39:23;6.05;;;3.10;;
9489;SDS011;4783;42.734;23.288;2022-10-16T12:42:00;6.22;;;3.22;;
9489;SDS011;4783;42.734;23.288;2022-10-16T12:44:25;6.72;;;2.58;;
9489;SDS011;4783;42.734;23.288;2022-10-16T12:46:53;6.18;;;3.03;;
9489;SDS011;4783;42.734;23.288;2022-10-16T12:51:46;4.60;;;3.70;;
9489;SDS011;4783;42.734;23.288;2022-10-16T12:54:18;4.88;;;3.33;;
9489;SDS011;4783;42.734;23.288;2022-10-16T13:04:29;3.40;;;2.40;;
9489;SDS011;4783;42.734;23.288;2022-10-16T13:17:37;3.53;;;2.30;;
9489;SDS011;4783;42.734;23.288;2022-10-16T13:22:48;5.87;;;2.50;;
9489;SDS011;4783;42.734;23.288;2022-10-16T13:27:59;3.47;;;1.80;;
9489;SDS011;4783;42.734;23.288;2022-10-16T13:30:26;4.28;;;2.17;;
9489;SDS011;4783;42.734;23.288;2022-10-16T13:35:46;3.50;;;2.30;;
9489;SDS011;4783;42.734;23.288;2022-10-16T13:38:15;3.10;;;2.28;;
9489;SDS011;4783;42.734;23.288;2022-10-16T13:40:52;4.10;;;2.75;;
9489;SDS011;4783;42.734;23.288;2022-10-16T13:43:18;5.50;;;2.10;;
9489;SDS011;4783;42.734;23.288;2022-10-16T13:48:39;4.80;;;2.30;;
9489;SDS011;4783;42.734;23.288;2022-10-16T13:53:30;5.25;;;2.20;;
9489;SDS011;4783;42.734;23.288;2022-10-16T13:55:57;6.25;;;3.70;;
9489;SDS011;4783;42.734;23.288;2022-10-16T13:58:22;4.47;;;1.90;;
9489;SDS011;4783;42.734;23.288;2022-10-16T14:00:55;4.75;;;2.17;;
9489;SDS011;4783;42.734;23.288;2022-10-16T14:03:21;10.30;;;3.10;;
9489;SDS011;4783;42.734;23.288;2022-10-16T14:06:04;8.00;;;2.43;;
9489;SDS011;4783;42.734;23.288;2022-10-16T14:08:31;8.63;;;2.35;;
9489;SDS011;4783;42.734;23.288;2022-10-16T14:10:57;4.13;;;2.30;;
9489;SDS011;4783;42.734;23.288;2022-10-16T14:16:22;4.53;;;2.17;;
9489;SDS011;4783;42.734;23.288;2022-10-16T14:18:58;5.47;;;2.70;;
9489;SDS011;4783;42.734;23.288;2022-10-16T14:21:24;4.50;;;2.85;;
9489;SDS011;4783;42.734;23.288;2022-10-16T14:23:50;4.25;;;2.60;;
9489;SDS011;4783;42.734;23.288;2022-10-16T14:26:17;7.75;;;3.58;;
9489;SDS011;4783;42.734;23.288;2022-10-16T14:28:42;3.88;;;2.90;;
9489;SDS011;4783;42.734;23.288;2022-10-16T14:31:22;4.38;;;2.67;;
9489;SDS011;4783;42.734;23.288;2022-10-16T14:33:48;4.72;;;2.30;;
9489;SDS011;4783;42.734;23.288;2022-10-16T14:36:15;5.57;;;3.10;;
9489;SDS011;4783;42.734;23.288;2022-10-16T14:38:48;4.50;;;2.50;;
9489;SDS011;4783;42.734;23.288;2022-10-16T14:41:14;5.45;;;2.40;;
9489;SDS011;4783;42.734;23.288;2022-10-16T14:43:40;8.68;;;4.00;;
9489;SDS011;4783;42.734;23.288;2022-10-16T14:46:09;6.53;;;2.88;;
9489;SDS011;4783;42.734;23.288;2022-10-16T14:48:39;6.22;;;2.40;;
9489;SDS011;4783;42.734;23.288;2022-10-16T14:51:05;5.38;;;3.75;;
9489;SDS011;4783;42.734;23.288;2022-10-16T14:53:33;3.85;;;3.45;;
9489;SDS011;4783;42.734;23.288;2022-10-16T14:56:05;4.30;;;2.88;;
